createdAt,value
2018-07-25T00:02:01.090Z,2.33
2018-07-25T00:04:29.169Z,2.50
2018-07-25T00:06:57.253Z,2.45
2018-07-25T00:09:25.317Z,2.40
2018-07-25T00:11:53.378Z,2.47
2018-07-25T00:14:21.881Z,2.70
2018-07-25T00:16:50.035Z,2.55
2018-07-25T00:19:18.101Z,2.10
2018-07-25T00:21:46.295Z,2.58
2018-07-25T00:24:14.457Z,2.20
2018-07-25T00:26:42.537Z,2.05
2018-07-25T00:29:10.926Z,2.33
2018-07-25T00:31:39.278Z,2.20
2018-07-25T00:34:07.576Z,1.90
2018-07-25T00:36:35.825Z,2.25
2018-07-25T00:39:05.262Z,2.00
2018-07-25T00:41:33.345Z,2.20
2018-07-25T00:44:01.566Z,2.00
2018-07-25T00:46:29.797Z,2.00
2018-07-25T00:48:59.098Z,2.30
2018-07-25T00:51:27.761Z,2.10
2018-07-25T00:53:57.332Z,2.02
2018-07-25T00:56:26.305Z,2.30
2018-07-25T00:58:54.726Z,2.10
2018-07-25T01:01:23.268Z,2.10
2018-07-25T01:03:51.711Z,2.50
2018-07-25T01:06:19.801Z,2.20
2018-07-25T01:08:50.489Z,2.40
2018-07-25T01:11:18.372Z,2.40
2018-07-25T01:13:46.293Z,2.60
2018-07-25T01:16:14.360Z,2.80
2018-07-25T01:18:42.537Z,2.42
2018-07-25T01:21:10.846Z,2.25
2018-07-25T01:23:38.910Z,2.35
2018-07-25T01:26:08.124Z,2.55
2018-07-25T01:28:36.505Z,2.62
2018-07-25T01:31:04.464Z,2.30
2018-07-25T01:33:32.324Z,2.47
2018-07-25T01:36:00.549Z,2.50
2018-07-25T01:38:28.885Z,2.30
2018-07-25T01:40:57.115Z,2.05
2018-07-25T01:43:25.973Z,2.25
2018-07-25T01:45:54.613Z,2.58
2018-07-25T01:48:23.422Z,1.87
2018-07-25T01:50:51.306Z,2.30
2018-07-25T01:53:19.189Z,2.20
2018-07-25T01:55:48.005Z,2.10
2018-07-25T01:58:16.142Z,2.20
2018-07-25T02:00:47.161Z,2.10
2018-07-25T02:03:16.241Z,2.67
2018-07-25T02:05:45.237Z,2.90
2018-07-25T02:08:13.433Z,2.60
2018-07-25T02:10:44.737Z,2.50
2018-07-25T02:13:14.386Z,2.55
2018-07-25T02:15:42.493Z,3.12
2018-07-25T02:18:10.729Z,2.90
2018-07-25T02:20:38.850Z,2.42
2018-07-25T02:24:09.405Z,2.45
2018-07-25T02:26:37.468Z,2.40
2018-07-25T02:29:05.552Z,3.20
2018-07-25T02:31:33.638Z,2.33
2018-07-25T02:34:07.161Z,2.80
2018-07-25T02:36:35.291Z,2.47
2018-07-25T02:39:04.525Z,2.42
2018-07-25T02:41:32.622Z,2.67
2018-07-25T02:44:00.754Z,2.50
2018-07-25T02:46:28.886Z,2.27
2018-07-25T02:48:57.074Z,2.15
2018-07-25T02:51:25.158Z,2.67
2018-07-25T02:53:53.342Z,2.58
2018-07-25T02:56:21.541Z,2.70
2018-07-25T02:58:49.660Z,2.62
2018-07-25T03:01:17.721Z,3.05
2018-07-25T03:03:45.910Z,2.42
2018-07-25T03:06:13.997Z,2.92
2018-07-25T03:08:42.116Z,2.95
2018-07-25T03:11:10.218Z,3.00
2018-07-25T03:13:38.297Z,3.05
2018-07-25T03:16:07.569Z,3.05
2018-07-25T03:18:35.497Z,3.10
2018-07-25T03:21:03.809Z,3.30
2018-07-25T03:23:33.155Z,3.12
2018-07-25T03:26:02.321Z,3.33
2018-07-25T03:28:31.564Z,2.90
2018-07-25T03:31:00.678Z,3.62
2018-07-25T03:33:28.837Z,3.12
2018-07-25T03:35:58.026Z,3.70
2018-07-25T03:38:26.924Z,3.72
2018-07-25T03:40:55.361Z,5.30
2018-07-25T03:43:23.448Z,3.90
2018-07-25T03:45:52.045Z,3.55
2018-07-25T03:48:20.465Z,3.67
2018-07-25T03:50:48.820Z,3.75
2018-07-25T03:53:17.056Z,3.20
2018-07-25T03:55:45.166Z,3.42
2018-07-25T03:58:13.383Z,3.62
2018-07-25T04:00:41.540Z,3.10
2018-07-25T04:03:09.609Z,2.98
2018-07-25T04:05:37.969Z,3.22
2018-07-25T04:08:07.693Z,3.30
2018-07-25T04:10:35.797Z,2.83
2018-07-25T04:13:04.881Z,3.52
2018-07-25T04:15:33.869Z,3.15
2018-07-25T04:18:02.245Z,3.20
2018-07-25T04:20:30.816Z,2.85
2018-07-25T04:22:59.931Z,3.37
2018-07-25T04:25:28.771Z,3.05
2018-07-25T04:27:56.633Z,3.12
2018-07-25T04:30:24.505Z,3.00
2018-07-25T04:32:52.673Z,2.80
2018-07-25T04:35:21.171Z,3.52
2018-07-25T04:37:49.902Z,3.02
2018-07-25T04:40:18.725Z,2.95
2018-07-25T04:42:46.902Z,3.52
2018-07-25T04:45:15.062Z,3.62
2018-07-25T04:48:46.857Z,3.60
2018-07-25T04:51:15.312Z,3.37
2018-07-25T04:53:43.519Z,3.65
2018-07-25T04:56:12.960Z,3.20
2018-07-25T04:58:41.988Z,3.15
2018-07-25T05:01:10.066Z,3.02
2018-07-25T05:03:38.797Z,3.83
2018-07-25T05:06:06.895Z,3.40
2018-07-25T05:08:34.981Z,3.33
2018-07-25T05:11:04.094Z,3.22
2018-07-25T05:13:32.045Z,3.62
2018-07-25T05:16:00.725Z,3.92
2018-07-25T05:18:28.873Z,3.72
2018-07-25T05:20:58.550Z,4.03
2018-07-25T05:23:27.673Z,3.35
2018-07-25T05:25:56.181Z,3.72
2018-07-25T05:28:25.351Z,3.60
2018-07-25T05:30:54.297Z,3.62
2018-07-25T05:33:22.238Z,3.40
2018-07-25T05:35:50.753Z,3.27
2018-07-25T05:38:18.820Z,3.55
2018-07-25T05:40:46.895Z,3.30
2018-07-25T05:43:15.635Z,3.58
2018-07-25T05:45:43.777Z,2.87
2018-07-25T05:48:11.768Z,3.20
2018-07-25T05:50:40.462Z,2.83
2018-07-25T05:53:08.826Z,2.85
2018-07-25T05:55:37.225Z,2.60
2018-07-25T05:58:05.556Z,2.58
2018-07-25T06:00:33.738Z,3.55
2018-07-25T06:03:02.300Z,3.77
2018-07-25T06:05:30.782Z,3.10
2018-07-25T06:07:59.093Z,3.70
2018-07-25T06:10:27.345Z,3.52
2018-07-25T06:12:55.911Z,3.27
2018-07-25T06:15:24.669Z,3.58
2018-07-25T06:17:53.425Z,3.35
2018-07-25T06:20:21.418Z,3.75
2018-07-25T06:22:49.508Z,3.02
2018-07-25T06:25:17.614Z,3.27
2018-07-25T06:27:46.614Z,3.05
2018-07-25T06:30:14.754Z,3.72
2018-07-25T06:32:43.354Z,2.67
2018-07-25T06:35:11.779Z,2.65
2018-07-25T06:37:40.436Z,2.95
2018-07-25T06:40:09.313Z,2.72
2018-07-25T06:42:37.965Z,3.30
2018-07-25T06:45:07.134Z,3.02
2018-07-25T06:47:35.549Z,2.65
2018-07-25T06:50:04.261Z,2.50
2018-07-25T06:52:32.426Z,3.17
2018-07-25T06:55:00.583Z,2.58
2018-07-25T06:57:28.793Z,2.80
2018-07-25T06:59:56.862Z,2.90
2018-07-25T07:02:25.004Z,2.90
2018-07-25T07:04:53.233Z,2.58
2018-07-25T07:07:21.369Z,2.65
2018-07-25T07:09:49.745Z,2.65
2018-07-25T07:12:17.935Z,2.92
2018-07-25T07:14:46.013Z,2.50
2018-07-25T07:17:14.161Z,3.00
2018-07-25T07:19:42.425Z,2.37
2018-07-25T07:22:11.186Z,2.42
2018-07-25T07:24:39.296Z,2.33
2018-07-25T07:27:07.599Z,2.55
2018-07-25T07:29:35.998Z,2.15
2018-07-25T07:32:05.357Z,2.37
2018-07-25T07:34:34.637Z,2.30
2018-07-25T07:37:02.857Z,2.08
2018-07-25T07:39:32.397Z,1.85
2018-07-25T07:42:00.387Z,1.90
2018-07-25T07:44:28.473Z,2.00
2018-07-25T07:46:56.549Z,1.90
2018-07-25T07:49:24.941Z,1.60
2018-07-25T07:51:54.226Z,1.72
2018-07-25T07:54:22.289Z,1.60
2018-07-25T07:56:51.205Z,1.65
2018-07-25T07:59:19.347Z,1.55
2018-07-25T08:01:47.409Z,1.65
2018-07-25T08:04:16.197Z,1.42
2018-07-25T08:06:44.452Z,1.65
2018-07-25T08:09:14.337Z,1.70
2018-07-25T08:11:43.294Z,1.75
2018-07-25T08:14:11.912Z,1.67
2018-07-25T08:16:40.346Z,1.70
2018-07-25T08:19:09.019Z,1.62
2018-07-25T08:21:37.514Z,1.82
2018-07-25T08:24:05.848Z,1.70
2018-07-25T08:26:38.061Z,1.80
2018-07-25T08:29:06.537Z,1.80
2018-07-25T08:31:35.266Z,1.90
2018-07-25T08:34:03.393Z,1.60
2018-07-25T08:36:32.145Z,2.00
2018-07-25T08:39:00.803Z,2.10
2018-07-25T08:41:30.423Z,1.72
2018-07-25T08:43:58.802Z,1.82
2018-07-25T08:46:26.928Z,1.82
2018-07-25T08:48:55.074Z,1.80
2018-07-25T08:51:23.307Z,2.05
2018-07-25T08:53:51.514Z,1.90
2018-07-25T08:56:19.780Z,1.92
2018-07-25T08:58:48.265Z,1.90
2018-07-25T09:01:16.465Z,1.80
2018-07-25T09:03:45.012Z,1.80
2018-07-25T09:06:13.833Z,1.90
2018-07-25T09:08:42.226Z,2.10
2018-07-25T09:11:10.402Z,2.37
2018-07-25T09:13:38.881Z,2.15
2018-07-25T09:16:07.117Z,2.00
2018-07-25T09:18:36.024Z,2.00
2018-07-25T09:21:04.593Z,2.27
2018-07-25T09:23:32.841Z,2.35
2018-07-25T09:26:00.892Z,2.00
2018-07-25T09:28:29.542Z,2.20
2018-07-25T09:30:57.886Z,2.10
2018-07-25T09:33:25.757Z,2.10
2018-07-25T09:35:53.700Z,2.10
2018-07-25T09:38:21.761Z,2.00
2018-07-25T09:40:50.339Z,2.00
2018-07-25T09:43:19.113Z,2.10
2018-07-25T09:45:47.184Z,1.98
2018-07-25T09:48:15.353Z,2.08
2018-07-25T09:50:44.374Z,1.87
2018-07-25T09:53:13.478Z,2.10
2018-07-25T09:55:41.595Z,1.75
2018-07-25T09:58:10.713Z,1.90
2018-07-25T10:00:44.757Z,2.00
2018-07-25T10:03:13.082Z,2.00
2018-07-25T10:05:41.318Z,2.12
2018-07-25T10:08:10.372Z,2.20
2018-07-25T10:10:38.869Z,2.10
2018-07-25T10:13:07.715Z,2.05
2018-07-25T10:15:36.281Z,1.95
2018-07-25T10:18:04.657Z,2.00
2018-07-25T10:20:32.961Z,2.37
2018-07-25T10:23:01.469Z,2.20
2018-07-25T10:25:29.809Z,1.75
2018-07-25T10:27:57.767Z,1.75
2018-07-25T10:30:25.969Z,2.27
2018-07-25T10:32:59.329Z,2.65
2018-07-25T10:35:27.411Z,2.30
2018-07-25T10:37:56.085Z,2.27
2018-07-25T10:40:25.647Z,2.50
2018-07-25T10:42:54.193Z,2.40
2018-07-25T10:45:23.589Z,2.42
2018-07-25T10:47:51.838Z,2.50
2018-07-25T10:50:19.974Z,2.20
2018-07-25T10:52:48.039Z,2.45
2018-07-25T10:55:16.213Z,2.40
2018-07-25T10:57:44.438Z,2.50
2018-07-25T11:00:13.431Z,2.50
2018-07-25T11:02:42.817Z,2.85
2018-07-25T11:05:11.204Z,2.85
2018-07-25T11:07:39.394Z,2.70
2018-07-25T11:10:07.541Z,2.58
2018-07-25T11:12:36.402Z,2.60
2018-07-25T11:15:04.949Z,2.25
2018-07-25T11:17:33.233Z,2.40
2018-07-25T11:20:01.689Z,2.72
2018-07-25T11:22:29.799Z,2.47
2018-07-25T11:24:58.731Z,2.30
2018-07-25T11:27:27.653Z,2.30
2018-07-25T11:29:56.329Z,3.05
2018-07-25T11:32:24.558Z,2.52
2018-07-25T11:34:52.694Z,2.92
2018-07-25T11:37:21.233Z,2.80
2018-07-25T11:39:49.699Z,2.62
2018-07-25T11:42:18.154Z,2.80
2018-07-25T11:44:46.305Z,2.70
2018-07-25T11:47:14.813Z,2.70
2018-07-25T11:49:43.038Z,2.60
2018-07-25T11:52:11.502Z,2.62
2018-07-25T11:54:40.173Z,2.87
2018-07-25T11:57:08.199Z,2.58
2018-07-25T11:59:36.289Z,2.58
2018-07-25T12:02:04.921Z,2.70
2018-07-25T12:04:33.286Z,2.62
2018-07-25T12:09:30.400Z,2.42
2018-07-25T12:11:58.569Z,2.95
2018-07-25T12:14:27.034Z,2.80
2018-07-25T12:16:55.473Z,2.87
2018-07-25T12:19:23.542Z,2.77
2018-07-25T12:21:52.092Z,2.80
2018-07-25T12:24:20.722Z,2.87
2018-07-25T12:26:48.681Z,2.50
2018-07-25T12:29:16.742Z,2.75
2018-07-25T12:31:45.025Z,2.80
2018-07-25T12:34:14.030Z,2.60
2018-07-25T12:36:42.072Z,2.47
2018-07-25T12:39:11.553Z,2.45
2018-07-25T12:41:40.815Z,2.50
2018-07-25T12:44:09.114Z,2.60
2018-07-25T12:46:37.445Z,2.80
2018-07-25T12:49:06.350Z,2.80
2018-07-25T12:51:34.633Z,2.60
2018-07-25T12:54:02.706Z,2.80
2018-07-25T12:56:31.380Z,2.80
2018-07-25T12:59:00.047Z,2.67
2018-07-25T13:01:28.261Z,2.65
2018-07-25T13:03:56.624Z,2.85
2018-07-25T13:06:24.836Z,3.02
2018-07-25T13:08:53.028Z,2.98
2018-07-25T13:11:22.188Z,3.62
2018-07-25T13:13:51.352Z,6.40
2018-07-25T13:16:19.698Z,5.42
2018-07-25T13:18:47.769Z,6.55
2018-07-25T13:21:15.978Z,7.83
2018-07-25T13:23:46.122Z,8.63
2018-07-25T13:26:14.109Z,10.70
2018-07-25T13:28:43.540Z,12.05
2018-07-25T13:31:11.552Z,12.75
2018-07-25T13:33:39.685Z,13.58
2018-07-25T13:36:07.808Z,15.43
2018-07-25T13:38:36.021Z,14.78
2018-07-25T13:41:04.770Z,15.85
2018-07-25T13:43:32.929Z,19.62
2018-07-25T13:46:01.338Z,21.17
2018-07-25T13:48:29.529Z,18.87
2018-07-25T13:50:57.867Z,15.63
2018-07-25T13:53:27.669Z,10.18
2018-07-25T13:55:56.016Z,5.35
2018-07-25T13:58:24.142Z,12.23
2018-07-25T14:00:52.793Z,8.30
2018-07-25T14:03:21.843Z,9.10
2018-07-25T14:05:50.069Z,9.90
2018-07-25T14:08:18.290Z,10.35
2018-07-25T14:10:46.173Z,11.10
2018-07-25T14:13:14.285Z,9.53
2018-07-25T14:15:42.675Z,9.65
2018-07-25T14:18:10.904Z,12.80
2018-07-25T14:20:40.577Z,10.98
2018-07-25T14:23:08.731Z,9.88
2018-07-25T14:25:36.873Z,10.10
2018-07-25T14:28:05.064Z,9.70
2018-07-25T14:30:34.752Z,9.33
2018-07-25T14:33:03.389Z,8.10
2018-07-25T14:35:31.549Z,8.28
2018-07-25T14:37:59.617Z,8.15
2018-07-25T14:40:27.931Z,7.47
2018-07-25T14:42:58.469Z,8.93
2018-07-25T14:45:26.596Z,9.48
2018-07-25T14:47:56.449Z,9.60
2018-07-25T14:50:26.281Z,9.20
2018-07-25T14:52:55.334Z,8.03
2018-07-25T14:55:23.857Z,7.90
2018-07-25T14:57:51.709Z,8.83
2018-07-25T15:00:20.458Z,8.75
2018-07-25T15:02:48.605Z,8.93
2018-07-25T15:05:16.829Z,8.85
2018-07-25T15:07:44.981Z,9.88
2018-07-25T15:10:13.839Z,9.93
2018-07-25T15:12:47.387Z,11.65
2018-07-25T15:15:15.533Z,12.55
2018-07-25T15:17:43.943Z,11.48
2018-07-25T15:20:12.109Z,13.32
2018-07-25T15:22:40.829Z,14.70
2018-07-25T15:25:10.165Z,14.20
2018-07-25T15:27:39.176Z,13.48
2018-07-25T15:30:09.033Z,13.05
2018-07-25T15:32:37.593Z,12.45
2018-07-25T15:35:06.193Z,13.62
2018-07-25T15:37:35.152Z,13.35
2018-07-25T15:40:03.373Z,14.40
2018-07-25T15:42:31.986Z,14.63
2018-07-25T15:45:00.452Z,14.05
2018-07-25T15:47:29.067Z,14.33
2018-07-25T15:49:59.935Z,13.18
2018-07-25T15:52:28.111Z,13.98
2018-07-25T15:54:57.607Z,14.70
2018-07-25T15:57:25.970Z,15.58
2018-07-25T15:59:54.729Z,15.10
2018-07-25T16:02:22.753Z,14.38
2018-07-25T16:04:50.916Z,15.90
2018-07-25T16:07:21.049Z,13.40
2018-07-25T16:09:49.397Z,9.38
2018-07-25T16:12:18.442Z,9.40
2018-07-25T16:14:46.613Z,8.98
2018-07-25T16:17:15.021Z,7.78
2018-07-25T16:19:43.781Z,7.05
2018-07-25T16:22:11.884Z,7.28
2018-07-25T16:24:40.304Z,6.78
2018-07-25T16:27:09.329Z,9.05
2018-07-25T16:29:37.649Z,7.65
2018-07-25T16:32:05.999Z,6.03
2018-07-25T16:34:34.267Z,7.42
2018-07-25T16:37:02.981Z,8.48
2018-07-25T16:39:31.892Z,7.65
2018-07-25T16:42:01.196Z,7.47
2018-07-25T16:44:29.553Z,9.03
2018-07-25T16:46:57.533Z,9.10
2018-07-25T16:49:25.915Z,8.35
2018-07-25T16:51:54.778Z,7.58
2018-07-25T16:54:22.804Z,6.22
2018-07-25T16:56:52.604Z,6.25
2018-07-25T16:59:20.737Z,6.83
2018-07-25T17:01:49.182Z,7.40
2018-07-25T17:04:17.385Z,7.80
2018-07-25T17:06:45.555Z,6.97
2018-07-25T17:09:14.430Z,8.73
2018-07-25T17:11:43.553Z,6.85
2018-07-25T17:14:12.176Z,6.17
2018-07-25T17:16:41.273Z,5.87
2018-07-25T17:19:09.529Z,6.10
2018-07-25T17:21:38.415Z,6.60
2018-07-25T17:24:06.409Z,6.37
2018-07-25T17:26:35.422Z,5.78
2018-07-25T17:29:03.601Z,5.22
2018-07-25T17:31:32.345Z,4.83
2018-07-25T17:34:01.137Z,5.22
2018-07-25T17:36:29.572Z,5.00
2018-07-25T17:38:58.343Z,5.65
2018-07-25T17:41:27.091Z,5.17
2018-07-25T17:43:55.320Z,4.95
2018-07-25T17:46:23.593Z,4.90
2018-07-25T17:48:52.844Z,5.10
2018-07-25T17:51:20.831Z,5.37
2018-07-25T17:53:49.244Z,4.78
2018-07-25T17:56:18.081Z,4.87
2018-07-25T17:58:46.768Z,5.45
2018-07-25T18:01:15.229Z,5.10
2018-07-25T18:03:44.097Z,5.45
2018-07-25T18:06:12.758Z,4.80
2018-07-25T18:08:41.005Z,4.85
2018-07-25T18:11:09.485Z,5.00
2018-07-25T18:13:43.749Z,4.80
2018-07-25T18:16:11.802Z,4.20
2018-07-25T18:18:40.042Z,4.70
2018-07-25T18:21:08.512Z,4.70
2018-07-25T18:23:36.576Z,4.08
2018-07-25T18:26:05.346Z,4.47
2018-07-25T18:28:33.742Z,4.60
2018-07-25T18:31:02.529Z,4.35
2018-07-25T18:33:30.694Z,4.40
2018-07-25T18:36:01.067Z,4.15
2018-07-25T18:38:29.186Z,4.00
2018-07-25T18:40:57.528Z,4.30
2018-07-25T18:43:26.908Z,4.90
2018-07-25T18:45:55.723Z,4.10
2018-07-25T18:48:24.137Z,4.30
2018-07-25T18:50:52.365Z,4.15
2018-07-25T18:53:20.637Z,4.92
2018-07-25T18:55:49.281Z,4.92
2018-07-25T18:58:17.593Z,5.12
2018-07-25T19:00:46.477Z,5.50
2018-07-25T19:03:15.265Z,5.78
2018-07-25T19:05:43.432Z,5.22
2018-07-25T19:08:11.986Z,6.17
2018-07-25T19:10:40.049Z,6.72
2018-07-25T19:13:14.500Z,6.37
2018-07-25T19:15:43.710Z,6.53
2018-07-25T19:18:12.255Z,6.22
2018-07-25T19:20:41.154Z,7.20
2018-07-25T19:23:09.385Z,7.83
2018-07-25T19:25:37.508Z,7.33
2018-07-25T19:28:05.849Z,6.95
2018-07-25T19:30:33.878Z,6.70
2018-07-25T19:33:02.214Z,7.33
2018-07-25T19:35:30.465Z,7.42
2018-07-25T19:37:58.997Z,7.03
2018-07-25T19:40:27.276Z,7.83
2018-07-25T19:42:56.006Z,7.55
2018-07-25T19:45:24.238Z,7.55
2018-07-25T19:47:53.157Z,7.65
2018-07-25T19:50:21.359Z,7.90
2018-07-25T19:52:49.481Z,7.15
2018-07-25T19:55:17.757Z,6.72
2018-07-25T19:57:46.777Z,6.90
2018-07-25T20:00:16.552Z,7.28
2018-07-25T20:02:43.522Z,7.67
2018-07-25T20:05:11.633Z,7.90
2018-07-25T20:07:39.696Z,7.60
2018-07-25T20:10:07.644Z,8.48
2018-07-25T20:12:36.272Z,8.48
2018-07-25T20:15:11.574Z,8.00
2018-07-25T20:17:39.965Z,8.68
2018-07-25T20:20:09.141Z,9.03
2018-07-25T20:22:38.161Z,9.35
2018-07-25T20:25:06.461Z,10.25
2018-07-25T20:27:34.779Z,8.50
2018-07-25T20:30:03.802Z,9.30
2018-07-25T20:32:32.693Z,7.67
2018-07-25T20:35:01.135Z,7.58
2018-07-25T20:37:29.938Z,7.50
2018-07-25T20:39:58.233Z,7.00
2018-07-25T20:42:26.489Z,8.58
2018-07-25T20:44:54.693Z,8.58
2018-07-25T20:47:23.117Z,7.40
2018-07-25T20:49:50.973Z,8.85
2018-07-25T20:52:19.003Z,9.33
2018-07-25T20:54:47.086Z,9.60
2018-07-25T20:57:15.917Z,10.35
2018-07-25T20:59:44.264Z,10.28
2018-07-25T21:02:12.709Z,11.50
2018-07-25T21:04:40.852Z,11.83
2018-07-25T21:07:08.705Z,11.38
2018-07-25T21:09:37.405Z,10.95
2018-07-25T21:12:06.866Z,11.22
2018-07-25T21:14:34.945Z,11.43
2018-07-25T21:17:03.732Z,11.03
2018-07-25T21:19:32.490Z,12.78
2018-07-25T21:22:01.693Z,12.90
2018-07-25T21:24:30.886Z,12.63
2018-07-25T21:26:59.168Z,13.20
2018-07-25T21:29:27.552Z,14.05
2018-07-25T21:31:56.638Z,14.38
2018-07-25T21:34:24.736Z,13.58
2018-07-25T21:36:53.165Z,14.10
2018-07-25T21:39:22.121Z,16.60
2018-07-25T21:41:51.907Z,17.10
2018-07-25T21:44:21.001Z,16.42
2018-07-25T21:46:49.234Z,16.97
2018-07-25T21:50:20.035Z,16.62
2018-07-25T21:52:48.192Z,15.78
2018-07-25T21:55:16.412Z,15.38
2018-07-25T21:57:46.393Z,15.18
2018-07-25T22:00:15.860Z,17.70
2018-07-25T22:02:47.474Z,16.32
2018-07-25T22:05:15.922Z,16.73
2018-07-25T22:07:45.157Z,16.45
2018-07-25T22:10:13.294Z,17.02
2018-07-25T22:12:41.579Z,17.65
2018-07-25T22:15:11.373Z,16.55
2018-07-25T22:17:40.558Z,15.60
2018-07-25T22:20:10.513Z,12.90
2018-07-25T22:22:39.116Z,13.95
2018-07-25T22:25:08.714Z,15.32
2018-07-25T22:27:37.725Z,16.15
2018-07-25T22:30:06.715Z,15.65
2018-07-25T22:32:35.014Z,16.35
2018-07-25T22:35:03.338Z,16.17
2018-07-25T22:37:31.900Z,14.98
2018-07-25T22:40:00.546Z,14.45
2018-07-25T22:42:29.470Z,15.10
2018-07-25T22:44:57.697Z,15.03
2018-07-25T22:47:26.462Z,16.10
2018-07-25T22:49:54.849Z,15.93
2018-07-25T22:52:23.836Z,15.28
2018-07-25T22:54:52.373Z,15.72
2018-07-25T22:57:20.497Z,16.77
2018-07-25T22:59:48.898Z,16.27
2018-07-25T23:02:17.846Z,16.35
2018-07-25T23:04:46.562Z,16.65
2018-07-25T23:07:15.593Z,17.52
2018-07-25T23:09:43.829Z,16.82
2018-07-25T23:12:12.999Z,15.48
2018-07-25T23:14:42.963Z,15.80
2018-07-25T23:17:11.868Z,16.73
2018-07-25T23:19:41.317Z,14.87
2018-07-25T23:22:10.141Z,16.97
2018-07-25T23:24:38.803Z,16.32
2018-07-25T23:27:07.501Z,17.25
2018-07-25T23:29:36.538Z,16.05
2018-07-25T23:32:04.981Z,16.00
2018-07-25T23:34:33.352Z,17.45
2018-07-25T23:37:02.228Z,18.10
2018-07-25T23:39:30.637Z,19.00
2018-07-25T23:41:58.865Z,19.30
2018-07-25T23:44:27.460Z,19.62
2018-07-25T23:46:55.893Z,19.35
2018-07-25T23:49:24.349Z,19.75
2018-07-25T23:51:52.438Z,19.27
2018-07-25T23:54:20.886Z,18.15
2018-07-25T23:56:49.450Z,17.07
2018-07-25T23:59:17.388Z,16.48
